sensor_id;sensor_type;location;lat;lon;timestamp;temperature;humidity
24144;DHT22;12307;50.828;6.080;2022-08-20T00:00:22;25.00;71.40
24144;DHT22;12307;50.828;6.080;2022-08-20T00:02:49;25.00;71.40
24144;DHT22;12307;50.828;6.080;2022-08-20T00:05:22;25.00;71.40
24144;DHT22;12307;50.828;6.080;2022-08-20T00:07:48;25.00;71.40
24144;DHT22;12307;50.828;6.080;2022-08-20T00:10:14;25.00;71.50
24144;DHT22;12307;50.828;6.080;2022-08-20T00:12:43;25.00;71.50
24144;DHT22;12307;50.828;6.080;2022-08-20T00:15:10;25.00;71.50
24144;DHT22;12307;50.828;6.080;2022-08-20T00:17:37;25.00;71.50
24144;DHT22;12307;50.828;6.080;2022-08-20T00:20:04;25.00;71.50
24144;DHT22;12307;50.828;6.080;2022-08-20T00:22:31;25.00;71.50
24144;DHT22;12307;50.828;6.080;2022-08-20T00:24:57;25.00;71.60
24144;DHT22;12307;50.828;6.080;2022-08-20T00:27:22;25.00;71.50
24144;DHT22;12307;50.828;6.080;2022-08-20T00:29:48;25.00;71.50
24144;DHT22;12307;50.828;6.080;2022-08-20T00:32:14;25.00;71.70
24144;DHT22;12307;50.828;6.080;2022-08-20T00:34:39;25.00;71.60
24144;DHT22;12307;50.828;6.080;2022-08-20T00:37:06;25.00;71.50
24144;DHT22;12307;50.828;6.080;2022-08-20T00:39:34;24.90;71.50
24144;DHT22;12307;50.828;6.080;2022-08-20T00:42:00;25.00;71.70
24144;DHT22;12307;50.828;6.080;2022-08-20T00:44:26;25.00;71.70
24144;DHT22;12307;50.828;6.080;2022-08-20T00:46:52;25.00;71.70
24144;DHT22;12307;50.828;6.080;2022-08-20T00:49:23;25.00;71.50
24144;DHT22;12307;50.828;6.080;2022-08-20T00:51:52;24.90;71.50
24144;DHT22;12307;50.828;6.080;2022-08-20T00:54:22;25.00;71.60
24144;DHT22;12307;50.828;6.080;2022-08-20T00:56:54;25.00;71.60
24144;DHT22;12307;50.828;6.080;2022-08-20T00:59:24;25.00;71.70
24144;DHT22;12307;50.828;6.080;2022-08-20T01:01:51;25.00;71.70
24144;DHT22;12307;50.828;6.080;2022-08-20T01:04:17;25.00;71.70
24144;DHT22;12307;50.828;6.080;2022-08-20T01:06:43;24.90;71.60
24144;DHT22;12307;50.828;6.080;2022-08-20T01:09:10;24.90;71.70
24144;DHT22;12307;50.828;6.080;2022-08-20T01:11:36;25.00;71.70
24144;DHT22;12307;50.828;6.080;2022-08-20T01:14:06;24.90;71.70
24144;DHT22;12307;50.828;6.080;2022-08-20T01:16:48;24.90;71.60
24144;DHT22;12307;50.828;6.080;2022-08-20T01:19:16;24.90;71.70
24144;DHT22;12307;50.828;6.080;2022-08-20T01:21:43;24.90;71.70
24144;DHT22;12307;50.828;6.080;2022-08-20T01:24:15;24.90;71.70
24144;DHT22;12307;50.828;6.080;2022-08-20T01:26:44;25.00;71.70
24144;DHT22;12307;50.828;6.080;2022-08-20T01:29:15;24.90;71.70
24144;DHT22;12307;50.828;6.080;2022-08-20T01:31:42;24.90;71.60
24144;DHT22;12307;50.828;6.080;2022-08-20T01:34:11;24.90;71.70
24144;DHT22;12307;50.828;6.080;2022-08-20T01:36:40;24.90;71.70
24144;DHT22;12307;50.828;6.080;2022-08-20T01:39:09;24.90;71.70
24144;DHT22;12307;50.828;6.080;2022-08-20T01:41:46;24.90;71.70
24144;DHT22;12307;50.828;6.080;2022-08-20T01:44:12;24.90;71.60
24144;DHT22;12307;50.828;6.080;2022-08-20T01:46:41;24.90;71.60
24144;DHT22;12307;50.828;6.080;2022-08-20T01:49:12;24.90;71.70
24144;DHT22;12307;50.828;6.080;2022-08-20T01:51:38;24.90;71.70
24144;DHT22;12307;50.828;6.080;2022-08-20T01:54:04;24.90;71.70
24144;DHT22;12307;50.828;6.080;2022-08-20T01:56:32;24.90;71.70
24144;DHT22;12307;50.828;6.080;2022-08-20T01:59:03;24.90;71.60
24144;DHT22;12307;50.828;6.080;2022-08-20T02:01:35;24.90;71.70
24144;DHT22;12307;50.828;6.080;2022-08-20T02:04:04;24.90;71.70
24144;DHT22;12307;50.828;6.080;2022-08-20T02:06:32;24.90;71.80
24144;DHT22;12307;50.828;6.080;2022-08-20T02:09:00;24.90;71.70
24144;DHT22;12307;50.828;6.080;2022-08-20T02:11:27;24.90;71.70
24144;DHT22;12307;50.828;6.080;2022-08-20T02:13:53;24.90;71.80
24144;DHT22;12307;50.828;6.080;2022-08-20T02:16:22;24.90;71.80
24144;DHT22;12307;50.828;6.080;2022-08-20T02:18:51;24.90;71.80
24144;DHT22;12307;50.828;6.080;2022-08-20T02:21:19;24.90;71.70
24144;DHT22;12307;50.828;6.080;2022-08-20T02:23:45;24.90;71.70
24144;DHT22;12307;50.828;6.080;2022-08-20T02:26:10;24.90;71.70
24144;DHT22;12307;50.828;6.080;2022-08-20T02:28:36;24.90;71.70
24144;DHT22;12307;50.828;6.080;2022-08-20T02:31:02;24.90;71.70
24144;DHT22;12307;50.828;6.080;2022-08-20T02:33:34;24.90;71.70
24144;DHT22;12307;50.828;6.080;2022-08-20T02:36:00;24.90;71.70
24144;DHT22;12307;50.828;6.080;2022-08-20T02:38:26;24.90;71.80
24144;DHT22;12307;50.828;6.080;2022-08-20T02:40:51;24.90;71.80
24144;DHT22;12307;50.828;6.080;2022-08-20T02:43:18;24.90;71.70
24144;DHT22;12307;50.828;6.080;2022-08-20T02:45:45;24.90;71.70
24144;DHT22;12307;50.828;6.080;2022-08-20T02:48:15;24.90;71.70
24144;DHT22;12307;50.828;6.080;2022-08-20T02:50:48;24.90;71.70
24144;DHT22;12307;50.828;6.080;2022-08-20T02:53:15;24.90;72.60
24144;DHT22;12307;50.828;6.080;2022-08-20T02:55:41;24.90;71.80
24144;DHT22;12307;50.828;6.080;2022-08-20T02:58:07;24.90;71.80
24144;DHT22;12307;50.828;6.080;2022-08-20T03:00:33;24.90;71.70
24144;DHT22;12307;50.828;6.080;2022-08-20T03:02:59;24.90;71.70
24144;DHT22;12307;50.828;6.080;2022-08-20T03:05:25;24.90;71.70
24144;DHT22;12307;50.828;6.080;2022-08-20T03:07:53;24.90;71.70
24144;DHT22;12307;50.828;6.080;2022-08-20T03:10:21;24.90;71.70
24144;DHT22;12307;50.828;6.080;2022-08-20T03:12:47;24.90;71.80
24144;DHT22;12307;50.828;6.080;2022-08-20T03:15:12;24.90;71.80
24144;DHT22;12307;50.828;6.080;2022-08-20T03:17:38;24.90;71.80
24144;DHT22;12307;50.828;6.080;2022-08-20T03:20:05;24.90;71.70
24144;DHT22;12307;50.828;6.080;2022-08-20T03:22:31;24.90;71.70
24144;DHT22;12307;50.828;6.080;2022-08-20T03:24:58;24.90;71.70
24144;DHT22;12307;50.828;6.080;2022-08-20T03:27:24;24.90;71.70
24144;DHT22;12307;50.828;6.080;2022-08-20T03:29:50;24.90;71.80
24144;DHT22;12307;50.828;6.080;2022-08-20T03:32:16;24.90;71.70
24144;DHT22;12307;50.828;6.080;2022-08-20T03:34:42;24.90;71.80
24144;DHT22;12307;50.828;6.080;2022-08-20T03:37:08;24.90;71.80
24144;DHT22;12307;50.828;6.080;2022-08-20T03:39:36;24.90;71.80
24144;DHT22;12307;50.828;6.080;2022-08-20T03:42:03;24.90;71.70
24144;DHT22;12307;50.828;6.080;2022-08-20T03:44:29;24.80;71.70
24144;DHT22;12307;50.828;6.080;2022-08-20T03:46:55;24.90;71.70
24144;DHT22;12307;50.828;6.080;2022-08-20T03:49:20;24.90;71.70
24144;DHT22;12307;50.828;6.080;2022-08-20T03:51:48;24.80;71.70
24144;DHT22;12307;50.828;6.080;2022-08-20T03:54:14;24.90;71.80
24144;DHT22;12307;50.828;6.080;2022-08-20T03:56:39;24.80;71.70
24144;DHT22;12307;50.828;6.080;2022-08-20T03:59:06;24.80;71.70
24144;DHT22;12307;50.828;6.080;2022-08-20T04:01:32;24.80;71.70
24144;DHT22;12307;50.828;6.080;2022-08-20T04:03:58;24.80;71.60
24144;DHT22;12307;50.828;6.080;2022-08-20T04:06:24;24.80;71.80
24144;DHT22;12307;50.828;6.080;2022-08-20T04:08:50;24.80;71.80
24144;DHT22;12307;50.828;6.080;2022-08-20T04:11:18;24.80;71.80
24144;DHT22;12307;50.828;6.080;2022-08-20T04:13:43;24.80;71.70
24144;DHT22;12307;50.828;6.080;2022-08-20T04:16:10;24.80;71.70
24144;DHT22;12307;50.828;6.080;2022-08-20T04:18:36;24.80;71.80
24144;DHT22;12307;50.828;6.080;2022-08-20T04:21:03;24.80;71.80
24144;DHT22;12307;50.828;6.080;2022-08-20T04:23:30;24.80;71.70
24144;DHT22;12307;50.828;6.080;2022-08-20T04:25:55;24.80;71.70
24144;DHT22;12307;50.828;6.080;2022-08-20T04:28:23;24.80;71.80
24144;DHT22;12307;50.828;6.080;2022-08-20T04:30:52;24.80;71.70
24144;DHT22;12307;50.828;6.080;2022-08-20T04:33:19;24.80;71.80
24144;DHT22;12307;50.828;6.080;2022-08-20T04:35:45;24.80;71.70
24144;DHT22;12307;50.828;6.080;2022-08-20T04:38:16;24.80;71.70
24144;DHT22;12307;50.828;6.080;2022-08-20T04:40:42;24.80;71.60
24144;DHT22;12307;50.828;6.080;2022-08-20T04:43:25;24.80;71.70
24144;DHT22;12307;50.828;6.080;2022-08-20T04:45:52;24.80;71.70
24144;DHT22;12307;50.828;6.080;2022-08-20T04:48:20;24.80;71.70
24144;DHT22;12307;50.828;6.080;2022-08-20T04:50:48;24.80;71.70
24144;DHT22;12307;50.828;6.080;2022-08-20T04:53:17;24.80;71.70
24144;DHT22;12307;50.828;6.080;2022-08-20T04:55:44;24.80;71.60
24144;DHT22;12307;50.828;6.080;2022-08-20T04:58:12;24.80;71.70
24144;DHT22;12307;50.828;6.080;2022-08-20T05:00:39;24.80;71.70
24144;DHT22;12307;50.828;6.080;2022-08-20T05:03:05;24.80;71.60
24144;DHT22;12307;50.828;6.080;2022-08-20T05:05:33;24.80;71.80
24144;DHT22;12307;50.828;6.080;2022-08-20T05:08:02;24.70;71.60
24144;DHT22;12307;50.828;6.080;2022-08-20T05:10:28;24.80;71.80
24144;DHT22;12307;50.828;6.080;2022-08-20T05:12:54;24.80;71.70
24144;DHT22;12307;50.828;6.080;2022-08-20T05:15:20;24.80;71.80
24144;DHT22;12307;50.828;6.080;2022-08-20T05:17:45;24.80;71.70
24144;DHT22;12307;50.828;6.080;2022-08-20T05:20:15;24.80;71.80
24144;DHT22;12307;50.828;6.080;2022-08-20T05:22:43;24.80;72.00
24144;DHT22;12307;50.828;6.080;2022-08-20T05:25:09;24.70;71.70
24144;DHT22;12307;50.828;6.080;2022-08-20T05:27:35;24.80;71.80
24144;DHT22;12307;50.828;6.080;2022-08-20T05:30:03;24.80;71.80
24144;DHT22;12307;50.828;6.080;2022-08-20T05:32:31;24.80;71.80
24144;DHT22;12307;50.828;6.080;2022-08-20T05:34:57;24.80;71.80
24144;DHT22;12307;50.828;6.080;2022-08-20T05:37:23;24.70;71.80
24144;DHT22;12307;50.828;6.080;2022-08-20T05:39:51;24.70;71.80
24144;DHT22;12307;50.828;6.080;2022-08-20T05:42:16;24.70;71.70
24144;DHT22;12307;50.828;6.080;2022-08-20T05:44:42;24.70;71.80
24144;DHT22;12307;50.828;6.080;2022-08-20T05:47:12;24.80;71.80
24144;DHT22;12307;50.828;6.080;2022-08-20T05:49:42;24.70;71.70
24144;DHT22;12307;50.828;6.080;2022-08-20T05:52:10;24.70;71.80
24144;DHT22;12307;50.828;6.080;2022-08-20T05:54:36;24.70;71.70
24144;DHT22;12307;50.828;6.080;2022-08-20T05:57:03;24.70;71.80
24144;DHT22;12307;50.828;6.080;2022-08-20T05:59:29;24.70;72.10
24144;DHT22;12307;50.828;6.080;2022-08-20T06:01:55;24.70;71.70
24144;DHT22;12307;50.828;6.080;2022-08-20T06:04:20;24.70;71.80
24144;DHT22;12307;50.828;6.080;2022-08-20T06:06:50;24.70;71.70
24144;DHT22;12307;50.828;6.080;2022-08-20T06:09:17;24.70;71.80
24144;DHT22;12307;50.828;6.080;2022-08-20T06:11:43;24.70;71.80
24144;DHT22;12307;50.828;6.080;2022-08-20T06:14:10;24.70;71.70
24144;DHT22;12307;50.828;6.080;2022-08-20T06:16:36;24.70;71.70
24144;DHT22;12307;50.828;6.080;2022-08-20T06:19:02;24.70;71.70
24144;DHT22;12307;50.828;6.080;2022-08-20T06:21:28;24.70;71.70
24144;DHT22;12307;50.828;6.080;2022-08-20T06:23:53;24.70;71.80
24144;DHT22;12307;50.828;6.080;2022-08-20T06:26:19;24.70;71.80
24144;DHT22;12307;50.828;6.080;2022-08-20T06:28:45;24.70;71.80
24144;DHT22;12307;50.828;6.080;2022-08-20T06:31:12;24.70;71.80
24144;DHT22;12307;50.828;6.080;2022-08-20T06:33:37;24.70;72.00
24144;DHT22;12307;50.828;6.080;2022-08-20T06:36:03;24.70;71.70
24144;DHT22;12307;50.828;6.080;2022-08-20T06:38:29;24.70;72.00
24144;DHT22;12307;50.828;6.080;2022-08-20T06:40:57;24.70;71.90
24144;DHT22;12307;50.828;6.080;2022-08-20T06:43:22;24.70;71.90
24144;DHT22;12307;50.828;6.080;2022-08-20T06:45:48;24.70;71.80
24144;DHT22;12307;50.828;6.080;2022-08-20T06:48:15;24.70;71.80
24144;DHT22;12307;50.828;6.080;2022-08-20T06:50:44;24.70;71.80
24144;DHT22;12307;50.828;6.080;2022-08-20T06:53:12;24.70;71.80
24144;DHT22;12307;50.828;6.080;2022-08-20T06:55:40;24.70;71.70
24144;DHT22;12307;50.828;6.080;2022-08-20T06:58:09;24.70;71.80
24144;DHT22;12307;50.828;6.080;2022-08-20T07:00:36;24.70;71.80
24144;DHT22;12307;50.828;6.080;2022-08-20T07:03:03;24.70;71.70
24144;DHT22;12307;50.828;6.080;2022-08-20T07:05:32;24.70;71.90
24144;DHT22;12307;50.828;6.080;2022-08-20T07:07:58;24.70;71.80
24144;DHT22;12307;50.828;6.080;2022-08-20T07:10:25;24.70;71.70
24144;DHT22;12307;50.828;6.080;2022-08-20T07:12:53;24.70;71.80
24144;DHT22;12307;50.828;6.080;2022-08-20T07:15:20;24.70;71.80
24144;DHT22;12307;50.828;6.080;2022-08-20T07:17:50;24.70;71.90
24144;DHT22;12307;50.828;6.080;2022-08-20T07:20:17;24.70;71.80
24144;DHT22;12307;50.828;6.080;2022-08-20T07:22:44;24.70;71.90
24144;DHT22;12307;50.828;6.080;2022-08-20T07:25:13;24.70;71.80
24144;DHT22;12307;50.828;6.080;2022-08-20T07:27:40;24.70;71.70
24144;DHT22;12307;50.828;6.080;2022-08-20T07:30:08;24.70;71.80
24144;DHT22;12307;50.828;6.080;2022-08-20T07:32:53;24.70;71.80
24144;DHT22;12307;50.828;6.080;2022-08-20T07:35:19;24.70;71.90
24144;DHT22;12307;50.828;6.080;2022-08-20T07:37:48;24.70;71.80
24144;DHT22;12307;50.828;6.080;2022-08-20T07:40:18;24.70;71.90
24144;DHT22;12307;50.828;6.080;2022-08-20T07:42:44;24.70;71.80
24144;DHT22;12307;50.828;6.080;2022-08-20T07:45:12;24.70;71.70
24144;DHT22;12307;50.828;6.080;2022-08-20T07:47:40;24.70;71.80
24144;DHT22;12307;50.828;6.080;2022-08-20T07:50:07;24.70;71.70
24144;DHT22;12307;50.828;6.080;2022-08-20T07:52:33;24.70;71.80
24144;DHT22;12307;50.828;6.080;2022-08-20T07:55:03;24.70;71.70
24144;DHT22;12307;50.828;6.080;2022-08-20T07:57:30;24.70;71.70
24144;DHT22;12307;50.828;6.080;2022-08-20T07:59:56;24.70;71.70
24144;DHT22;12307;50.828;6.080;2022-08-20T08:02:23;24.70;71.70
24144;DHT22;12307;50.828;6.080;2022-08-20T08:04:49;24.70;71.70
24144;DHT22;12307;50.828;6.080;2022-08-20T08:07:15;24.70;71.70
24144;DHT22;12307;50.828;6.080;2022-08-20T08:09:41;24.70;71.70
24144;DHT22;12307;50.828;6.080;2022-08-20T08:12:10;24.70;71.70
24144;DHT22;12307;50.828;6.080;2022-08-20T08:14:38;24.70;71.90
24144;DHT22;12307;50.828;6.080;2022-08-20T08:17:04;24.70;71.50
24144;DHT22;12307;50.828;6.080;2022-08-20T08:19:36;24.70;71.70
24144;DHT22;12307;50.828;6.080;2022-08-20T08:22:04;24.70;71.70
24144;DHT22;12307;50.828;6.080;2022-08-20T08:24:31;24.70;71.70
24144;DHT22;12307;50.828;6.080;2022-08-20T08:26:57;24.70;71.60
24144;DHT22;12307;50.828;6.080;2022-08-20T08:29:26;24.70;71.70
24144;DHT22;12307;50.828;6.080;2022-08-20T08:31:53;24.70;71.70
24144;DHT22;12307;50.828;6.080;2022-08-20T08:34:18;24.70;71.70
24144;DHT22;12307;50.828;6.080;2022-08-20T08:36:44;24.70;71.70
24144;DHT22;12307;50.828;6.080;2022-08-20T08:39:10;24.70;71.70
24144;DHT22;12307;50.828;6.080;2022-08-20T08:41:40;24.70;71.70
24144;DHT22;12307;50.828;6.080;2022-08-20T08:44:15;24.70;71.50
24144;DHT22;12307;50.828;6.080;2022-08-20T08:46:49;24.70;71.40
24144;DHT22;12307;50.828;6.080;2022-08-20T08:49:18;24.70;71.40
24144;DHT22;12307;50.828;6.080;2022-08-20T08:51:47;24.70;71.30
24144;DHT22;12307;50.828;6.080;2022-08-20T08:54:16;24.70;71.10
24144;DHT22;12307;50.828;6.080;2022-08-20T08:56:43;24.70;71.10
24144;DHT22;12307;50.828;6.080;2022-08-20T08:59:09;24.70;71.00
24144;DHT22;12307;50.828;6.080;2022-08-20T09:01:39;24.80;71.30
24144;DHT22;12307;50.828;6.080;2022-08-20T09:04:09;24.80;71.00
24144;DHT22;12307;50.828;6.080;2022-08-20T09:06:35;24.80;71.10
24144;DHT22;12307;50.828;6.080;2022-08-20T09:09:02;24.80;71.60
24144;DHT22;12307;50.828;6.080;2022-08-20T09:11:29;24.80;71.30
24144;DHT22;12307;50.828;6.080;2022-08-20T09:13:55;24.80;71.80
24144;DHT22;12307;50.828;6.080;2022-08-20T09:16:22;24.80;71.80
24144;DHT22;12307;50.828;6.080;2022-08-20T09:18:47;24.80;71.50
24144;DHT22;12307;50.828;6.080;2022-08-20T09:21:15;24.80;71.30
24144;DHT22;12307;50.828;6.080;2022-08-20T09:23:41;24.80;71.30
24144;DHT22;12307;50.828;6.080;2022-08-20T09:26:06;24.80;71.50
24144;DHT22;12307;50.828;6.080;2022-08-20T09:28:33;24.90;71.50
24144;DHT22;12307;50.828;6.080;2022-08-20T09:30:59;24.80;71.90
24144;DHT22;12307;50.828;6.080;2022-08-20T09:33:24;24.80;72.10
24144;DHT22;12307;50.828;6.080;2022-08-20T09:35:50;24.80;72.30
24144;DHT22;12307;50.828;6.080;2022-08-20T09:38:17;24.90;72.50
24144;DHT22;12307;50.828;6.080;2022-08-20T09:40:43;24.80;72.40
24144;DHT22;12307;50.828;6.080;2022-08-20T09:43:09;24.80;72.60
24144;DHT22;12307;50.828;6.080;2022-08-20T09:45:35;24.80;72.40
24144;DHT22;12307;50.828;6.080;2022-08-20T09:48:00;24.80;72.60
24144;DHT22;12307;50.828;6.080;2022-08-20T09:50:28;24.80;72.60
24144;DHT22;12307;50.828;6.080;2022-08-20T09:52:57;24.80;72.70
24144;DHT22;12307;50.828;6.080;2022-08-20T09:55:30;24.80;72.60
24144;DHT22;12307;50.828;6.080;2022-08-20T09:57:57;24.80;72.30
24144;DHT22;12307;50.828;6.080;2022-08-20T10:00:23;24.80;72.70
24144;DHT22;12307;50.828;6.080;2022-08-20T10:02:49;24.80;72.70
24144;DHT22;12307;50.828;6.080;2022-08-20T10:05:15;24.80;72.70
24144;DHT22;12307;50.828;6.080;2022-08-20T10:07:41;24.80;72.50
24144;DHT22;12307;50.828;6.080;2022-08-20T10:10:09;24.80;72.60
24144;DHT22;12307;50.828;6.080;2022-08-20T10:12:37;24.80;72.60
24144;DHT22;12307;50.828;6.080;2022-08-20T10:15:04;24.80;72.40
24144;DHT22;12307;50.828;6.080;2022-08-20T10:17:29;24.80;72.50
24144;DHT22;12307;50.828;6.080;2022-08-20T10:19:55;24.90;72.40
24144;DHT22;12307;50.828;6.080;2022-08-20T10:22:21;24.90;72.40
24144;DHT22;12307;50.828;6.080;2022-08-20T10:24:46;24.90;72.60
24144;DHT22;12307;50.828;6.080;2022-08-20T10:27:15;24.90;72.40
24144;DHT22;12307;50.828;6.080;2022-08-20T10:29:42;24.90;72.60
24144;DHT22;12307;50.828;6.080;2022-08-20T10:32:09;24.90;72.60
24144;DHT22;12307;50.828;6.080;2022-08-20T10:34:36;24.90;72.60
24144;DHT22;12307;50.828;6.080;2022-08-20T10:37:02;24.90;72.40
24144;DHT22;12307;50.828;6.080;2022-08-20T10:39:28;24.90;71.40
24144;DHT22;12307;50.828;6.080;2022-08-20T10:41:53;25.00;72.00
24144;DHT22;12307;50.828;6.080;2022-08-20T10:44:19;25.00;71.90
24144;DHT22;12307;50.828;6.080;2022-08-20T10:46:46;25.00;71.70
24144;DHT22;12307;50.828;6.080;2022-08-20T10:49:12;25.00;71.70
24144;DHT22;12307;50.828;6.080;2022-08-20T10:51:37;25.00;71.70
24144;DHT22;12307;50.828;6.080;2022-08-20T10:54:03;25.10;71.60
24144;DHT22;12307;50.828;6.080;2022-08-20T10:56:29;25.10;71.60
24144;DHT22;12307;50.828;6.080;2022-08-20T10:58:54;25.10;71.50
24144;DHT22;12307;50.828;6.080;2022-08-20T11:01:20;25.10;71.90
24144;DHT22;12307;50.828;6.080;2022-08-20T11:03:47;25.10;72.00
24144;DHT22;12307;50.828;6.080;2022-08-20T11:06:13;25.10;71.60
24144;DHT22;12307;50.828;6.080;2022-08-20T11:08:39;25.10;71.00
24144;DHT22;12307;50.828;6.080;2022-08-20T11:11:05;25.10;71.70
24144;DHT22;12307;50.828;6.080;2022-08-20T11:13:31;25.10;71.30
24144;DHT22;12307;50.828;6.080;2022-08-20T11:15:57;25.10;71.80
24144;DHT22;12307;50.828;6.080;2022-08-20T11:18:22;25.20;71.60
24144;DHT22;12307;50.828;6.080;2022-08-20T11:20:49;25.20;71.60
24144;DHT22;12307;50.828;6.080;2022-08-20T11:23:15;25.20;71.60
24144;DHT22;12307;50.828;6.080;2022-08-20T11:25:41;25.20;71.50
24144;DHT22;12307;50.828;6.080;2022-08-20T11:28:06;25.20;71.50
24144;DHT22;12307;50.828;6.080;2022-08-20T11:30:34;25.20;71.20
24144;DHT22;12307;50.828;6.080;2022-08-20T11:33:01;25.20;71.20
24144;DHT22;12307;50.828;6.080;2022-08-20T11:35:28;25.20;71.10
24144;DHT22;12307;50.828;6.080;2022-08-20T11:37:59;25.30;71.40
24144;DHT22;12307;50.828;6.080;2022-08-20T11:40:25;25.30;71.30
24144;DHT22;12307;50.828;6.080;2022-08-20T11:42:51;25.30;71.10
24144;DHT22;12307;50.828;6.080;2022-08-20T11:45:17;25.30;71.20
24144;DHT22;12307;50.828;6.080;2022-08-20T11:47:43;25.30;70.60
24144;DHT22;12307;50.828;6.080;2022-08-20T11:50:13;25.30;70.70
24144;DHT22;12307;50.828;6.080;2022-08-20T11:52:39;25.30;71.30
24144;DHT22;12307;50.828;6.080;2022-08-20T11:55:08;25.30;71.00
24144;DHT22;12307;50.828;6.080;2022-08-20T11:57:37;25.30;71.10
24144;DHT22;12307;50.828;6.080;2022-08-20T12:00:05;25.30;71.10
24144;DHT22;12307;50.828;6.080;2022-08-20T12:02:32;25.30;70.90
24144;DHT22;12307;50.828;6.080;2022-08-20T12:04:58;25.30;70.90
24144;DHT22;12307;50.828;6.080;2022-08-20T12:07:24;25.30;70.90
24144;DHT22;12307;50.828;6.080;2022-08-20T12:09:50;25.40;70.70
24144;DHT22;12307;50.828;6.080;2022-08-20T12:12:18;25.40;70.90
24144;DHT22;12307;50.828;6.080;2022-08-20T12:14:45;25.40;70.60
24144;DHT22;12307;50.828;6.080;2022-08-20T12:17:13;25.40;70.70
24144;DHT22;12307;50.828;6.080;2022-08-20T12:19:40;25.40;70.60
24144;DHT22;12307;50.828;6.080;2022-08-20T12:22:06;25.40;70.40
24144;DHT22;12307;50.828;6.080;2022-08-20T12:24:33;25.30;70.90
24144;DHT22;12307;50.828;6.080;2022-08-20T12:27:07;25.40;71.00
24144;DHT22;12307;50.828;6.080;2022-08-20T12:29:34;25.40;71.00
24144;DHT22;12307;50.828;6.080;2022-08-20T12:32:00;25.40;71.10
24144;DHT22;12307;50.828;6.080;2022-08-20T12:34:26;25.40;71.00
24144;DHT22;12307;50.828;6.080;2022-08-20T12:36:59;25.40;71.10
24144;DHT22;12307;50.828;6.080;2022-08-20T12:39:25;25.40;70.80
24144;DHT22;12307;50.828;6.080;2022-08-20T12:41:50;25.40;70.80
24144;DHT22;12307;50.828;6.080;2022-08-20T12:44:16;25.40;70.70
24144;DHT22;12307;50.828;6.080;2022-08-20T12:46:43;25.40;70.70
24144;DHT22;12307;50.828;6.080;2022-08-20T12:49:09;25.40;70.70
24144;DHT22;12307;50.828;6.080;2022-08-20T12:51:35;25.40;70.50
24144;DHT22;12307;50.828;6.080;2022-08-20T12:54:00;25.40;70.50
24144;DHT22;12307;50.828;6.080;2022-08-20T12:56:26;25.40;70.50
24144;DHT22;12307;50.828;6.080;2022-08-20T12:58:52;25.40;70.40
24144;DHT22;12307;50.828;6.080;2022-08-20T13:01:17;25.40;70.50
24144;DHT22;12307;50.828;6.080;2022-08-20T13:03:44;25.40;70.40
24144;DHT22;12307;50.828;6.080;2022-08-20T13:06:10;25.40;70.40
24144;DHT22;12307;50.828;6.080;2022-08-20T13:08:36;25.40;70.40
24144;DHT22;12307;50.828;6.080;2022-08-20T13:11:01;25.40;70.60
24144;DHT22;12307;50.828;6.080;2022-08-20T13:13:27;25.40;70.40
24144;DHT22;12307;50.828;6.080;2022-08-20T13:15:53;25.40;70.50
24144;DHT22;12307;50.828;6.080;2022-08-20T13:18:18;25.40;70.30
24144;DHT22;12307;50.828;6.080;2022-08-20T13:20:46;25.40;70.20
24144;DHT22;12307;50.828;6.080;2022-08-20T13:23:12;25.40;70.20
24144;DHT22;12307;50.828;6.080;2022-08-20T13:25:37;25.40;70.30
24144;DHT22;12307;50.828;6.080;2022-08-20T13:28:04;25.40;70.00
24144;DHT22;12307;50.828;6.080;2022-08-20T13:30:31;25.40;70.20
24144;DHT22;12307;50.828;6.080;2022-08-20T13:32:57;25.40;70.20
24144;DHT22;12307;50.828;6.080;2022-08-20T13:35:23;25.40;70.10
24144;DHT22;12307;50.828;6.080;2022-08-20T13:37:50;25.40;70.30
24144;DHT22;12307;50.828;6.080;2022-08-20T13:40:16;25.40;70.30
24144;DHT22;12307;50.828;6.080;2022-08-20T13:42:42;25.40;70.20
24144;DHT22;12307;50.828;6.080;2022-08-20T13:45:09;25.40;70.30
24144;DHT22;12307;50.828;6.080;2022-08-20T13:47:36;25.40;70.30
24144;DHT22;12307;50.828;6.080;2022-08-20T13:50:05;25.40;70.20
24144;DHT22;12307;50.828;6.080;2022-08-20T13:52:33;25.40;70.10
24144;DHT22;12307;50.828;6.080;2022-08-20T13:55:00;25.40;70.10
24144;DHT22;12307;50.828;6.080;2022-08-20T13:57:26;25.40;70.10
24144;DHT22;12307;50.828;6.080;2022-08-20T13:59:56;25.40;70.10
24144;DHT22;12307;50.828;6.080;2022-08-20T14:02:22;25.40;70.10
24144;DHT22;12307;50.828;6.080;2022-08-20T14:04:49;25.40;70.10
24144;DHT22;12307;50.828;6.080;2022-08-20T14:07:16;25.40;70.20
24144;DHT22;12307;50.828;6.080;2022-08-20T14:09:44;25.40;70.20
24144;DHT22;12307;50.828;6.080;2022-08-20T14:12:12;25.40;70.10
24144;DHT22;12307;50.828;6.080;2022-08-20T14:14:41;25.40;70.20
24144;DHT22;12307;50.828;6.080;2022-08-20T14:17:18;25.40;70.20
24144;DHT22;12307;50.828;6.080;2022-08-20T14:19:44;25.40;70.20
24144;DHT22;12307;50.828;6.080;2022-08-20T14:22:10;25.30;70.00
24144;DHT22;12307;50.828;6.080;2022-08-20T14:24:35;25.30;70.10
24144;DHT22;12307;50.828;6.080;2022-08-20T14:27:02;25.30;70.10
24144;DHT22;12307;50.828;6.080;2022-08-20T14:29:32;25.30;70.10
24144;DHT22;12307;50.828;6.080;2022-08-20T14:31:58;25.30;70.00
24144;DHT22;12307;50.828;6.080;2022-08-20T14:34:23;25.30;70.00
24144;DHT22;12307;50.828;6.080;2022-08-20T14:36:49;25.30;70.10
24144;DHT22;12307;50.828;6.080;2022-08-20T14:39:15;25.30;70.10
24144;DHT22;12307;50.828;6.080;2022-08-20T14:41:40;25.30;70.10
24144;DHT22;12307;50.828;6.080;2022-08-20T14:44:06;25.30;70.20
24144;DHT22;12307;50.828;6.080;2022-08-20T14:46:33;25.30;70.30
24144;DHT22;12307;50.828;6.080;2022-08-20T14:48:59;25.30;70.30
24144;DHT22;12307;50.828;6.080;2022-08-20T14:51:24;25.30;70.10
24144;DHT22;12307;50.828;6.080;2022-08-20T14:53:50;25.30;70.40
24144;DHT22;12307;50.828;6.080;2022-08-20T14:56:16;25.30;70.00
24144;DHT22;12307;50.828;6.080;2022-08-20T14:58:42;25.30;70.10
24144;DHT22;12307;50.828;6.080;2022-08-20T15:01:08;25.30;70.20
24144;DHT22;12307;50.828;6.080;2022-08-20T15:03:35;25.30;70.30
24144;DHT22;12307;50.828;6.080;2022-08-20T15:06:00;25.30;70.30
24144;DHT22;12307;50.828;6.080;2022-08-20T15:08:26;25.30;70.20
24144;DHT22;12307;50.828;6.080;2022-08-20T15:10:52;25.30;70.10
24144;DHT22;12307;50.828;6.080;2022-08-20T15:13:18;25.30;70.20
24144;DHT22;12307;50.828;6.080;2022-08-20T15:15:43;25.30;70.30
24144;DHT22;12307;50.828;6.080;2022-08-20T15:18:09;25.30;70.30
24144;DHT22;12307;50.828;6.080;2022-08-20T15:20:36;25.30;70.30
24144;DHT22;12307;50.828;6.080;2022-08-20T15:23:03;25.30;70.30
24144;DHT22;12307;50.828;6.080;2022-08-20T15:25:31;25.30;70.30
24144;DHT22;12307;50.828;6.080;2022-08-20T15:27:59;25.30;70.30